Time;durP1;ratioP1;P1;durP2;ratioP2;P2;SDS_P1;SDS_P2;PMS_P1;PMS_P2;Temp;Humidity;BMP_temperature;BMP_pressure;BME280_temperature;BME280_humidity;BME280_pressure;Samples;Min_cycle;Max_cycle;Signal;HPM_P1;HPM_P2
2024/02/24 00:00:10;;;;;;;5.65;3.70;;;;;;;4.66;89.14;96326.44;5162266;23;20178;-84
2024/02/24 00:02:15;;;;;;;5.47;3.40;;;;;;;4.66;88.29;96325.59;5163436;23;20604;-86
2024/02/24 00:04:19;;;;;;;6.82;3.65;;;;;;;4.63;88.24;96324.06;5165031;22;20220;-87
2024/02/24 00:06:22;;;;;;;7.75;3.67;;;;;;;4.60;89.11;96316.56;5136643;23;20700;-85
2024/02/24 00:08:25;;;;;;;7.80;3.50;;;;;;;4.60;88.20;96326.88;5162608;23;20186;-85
2024/02/24 00:10:28;;;;;;;8.45;3.70;;;;;;;4.63;88.41;96334.41;5163222;23;20200;-85
2024/02/24 00:12:33;;;;;;;6.60;3.38;;;;;;;4.65;88.79;96336.88;5137896;23;20253;-84
2024/02/24 00:14:37;;;;;;;4.72;3.28;;;;;;;4.64;88.89;96325.69;5162864;23;20601;-84
2024/02/24 00:16:41;;;;;;;5.97;3.03;;;;;;;4.65;90.12;96329.94;5136698;23;20510;-84
2024/02/24 00:18:45;;;;;;;6.75;3.05;;;;;;;4.69;89.52;96337.34;5138313;23;20277;-85
2024/02/24 00:20:48;;;;;;;4.05;3.03;;;;;;;4.70;88.75;96330.41;5163087;23;20580;-85
2024/02/24 00:22:50;;;;;;;5.53;3.45;;;;;;;4.69;89.05;96336.50;5137332;23;20179;-84
2024/02/24 00:24:53;;;;;;;7.85;3.55;;;;;;;4.68;88.99;96338.28;5135894;23;20184;-85
2024/02/24 00:26:56;;;;;;;5.35;3.50;;;;;;;4.70;89.38;96330.41;5161851;23;20652;-85
2024/02/24 00:29:01;;;;;;;4.57;3.00;;;;;;;4.69;89.23;96331.34;5136942;23;20190;-84
2024/02/24 00:31:05;;;;;;;6.47;3.58;;;;;;;4.69;89.48;96327.03;5138180;23;20229;-84
2024/02/24 00:33:08;;;;;;;5.60;3.20;;;;;;;4.68;89.66;96327.94;5162834;23;20177;-85
2024/02/24 00:35:12;;;;;;;5.88;3.20;;;;;;;4.73;88.93;96331.00;5138659;23;20171;-84
2024/02/24 00:37:15;;;;;;;6.82;3.30;;;;;;;4.72;88.97;96324.22;5136202;23;20183;-85
2024/02/24 00:39:17;;;;;;;5.53;3.30;;;;;;;4.71;88.83;96325.13;5161761;23;20280;-85
2024/02/24 00:41:20;;;;;;;5.28;3.13;;;;;;;4.69;89.02;96321.00;5163063;23;20182;-84
2024/02/24 00:43:23;;;;;;;8.77;3.17;;;;;;;4.67;89.63;96319.50;5137993;23;20268;-84
2024/02/24 00:45:28;;;;;;;4.72;3.15;;;;;;;4.70;89.71;96331.22;5162416;23;20175;-84
2024/02/24 00:47:32;;;;;;;5.78;3.03;;;;;;;4.68;89.28;96332.28;5163258;23;20268;-85
2024/02/24 00:49:35;;;;;;;7.68;2.97;;;;;;;4.67;89.29;96328.06;5138925;23;20208;-84
2024/02/24 00:51:38;;;;;;;5.82;3.30;;;;;;;4.67;89.22;96322.09;5162885;23;20229;-86
2024/02/24 00:53:41;;;;;;;5.43;3.00;;;;;;;4.66;89.59;96326.44;5163420;23;20202;-84
2024/02/24 00:55:45;;;;;;;7.53;3.80;;;;;;;4.68;89.44;96331.47;5137269;23;20174;-84
2024/02/24 00:57:50;;;;;;;8.25;3.50;;;;;;;4.67;88.92;96342.72;5162819;23;20192;-85
2024/02/24 00:59:53;;;;;;;6.65;3.75;;;;;;;4.68;89.99;96339.22;5164401;22;20705;-85
2024/02/24 01:01:58;;;;;;;6.90;4.00;;;;;;;4.69;89.21;96336.50;5138918;23;20258;-84
2024/02/24 01:04:00;;;;;;;6.13;3.42;;;;;;;4.72;88.99;96341.44;5139884;23;20731;-84
2024/02/24 01:06:04;;;;;;;7.65;3.97;;;;;;;4.71;90.14;96334.66;5165065;23;20282;-85
2024/02/24 01:08:07;;;;;;;8.60;4.30;;;;;;;4.69;89.43;96329.59;5139144;23;20247;-87
2024/02/24 01:10:13;;;;;;;10.57;4.05;;;;;;;4.66;89.14;96329.00;5165116;23;20190;-84
2024/02/24 01:12:17;;;;;;;5.05;3.50;;;;;;;4.67;90.02;96333.22;5165566;23;20284;-84
2024/02/24 01:14:20;;;;;;;6.72;3.47;;;;;;;4.65;89.50;96344.63;5139871;23;20194;-84
2024/02/24 01:16:24;;;;;;;6.53;3.95;;;;;;;4.66;89.83;96341.91;5164655;23;20178;-84
2024/02/24 01:18:28;;;;;;;5.82;3.83;;;;;;;4.67;90.22;96338.38;5164981;23;20220;-84
2024/02/24 01:20:32;;;;;;;4.78;3.25;;;;;;;4.69;90.60;96339.94;5140082;23;20237;-84
2024/02/24 01:22:35;;;;;;;7.03;3.55;;;;;;;4.70;89.72;96333.81;5139897;23;20736;-84
2024/02/24 01:24:38;;;;;;;5.85;3.58;;;;;;;4.71;89.31;96339.81;5140538;23;20181;-84
2024/02/24 01:26:42;;;;;;;7.20;3.80;;;;;;;4.69;89.47;96339.09;5163071;23;20646;-85
2024/02/24 01:28:48;;;;;;;5.47;3.25;;;;;;;4.65;90.32;96329.94;5137201;23;20588;-85
2024/02/24 01:30:51;;;;;;;5.93;3.10;;;;;;;4.62;89.66;96331.94;5134768;23;20183;-84
2024/02/24 01:32:53;;;;;;;5.88;3.35;;;;;;;4.60;90.29;96326.03;5163917;22;20250;-85
2024/02/24 01:34:59;;;;;;;5.93;3.30;;;;;;;4.62;90.32;96335.31;5162449;23;20276;-85
2024/02/24 01:37:02;;;;;;;6.05;3.13;;;;;;;4.62;88.88;96331.94;5136018;23;20190;-85
2024/02/24 01:39:05;;;;;;;6.55;3.92;;;;;;;4.61;89.39;96338.03;5162340;23;20177;-85
2024/02/24 01:41:08;;;;;;;7.40;3.10;;;;;;;4.61;89.40;96335.44;5136921;23;20619;-85
2024/02/24 01:43:24;;;;;;;8.90;4.38;;;;;;;4.60;90.18;96332.03;5136882;23;20185;-85
2024/02/24 01:45:28;;;;;;;6.60;3.90;;;;;;;4.59;89.61;96334.75;5136326;23;20223;-84
2024/02/24 01:47:31;;;;;;;6.35;3.30;;;;;;;4.60;88.83;96338.94;5161529;23;20205;-85
2024/02/24 01:49:34;;;;;;;4.57;3.40;;;;;;;4.61;89.72;96346.56;5162153;23;20208;-85
2024/02/24 01:51:39;;;;;;;8.93;3.63;;;;;;;4.60;90.26;96342.38;5137006;23;20217;-84
2024/02/24 01:53:43;;;;;;;7.03;3.28;;;;;;;4.57;89.61;96347.75;5163056;23;20169;-85
2024/02/24 01:55:47;;;;;;;5.30;3.20;;;;;;;4.60;88.77;96347.53;5137110;23;20182;-85
2024/02/24 01:57:50;;;;;;;7.03;3.92;;;;;;;4.61;88.86;96348.34;5161445;23;20190;-85
2024/02/24 01:59:54;;;;;;;4.47;3.00;;;;;;;4.63;89.02;96355.06;5136820;23;20634;-85
2024/02/24 02:01:58;;;;;;;5.60;3.60;;;;;;;4.65;89.57;96354.94;5162626;23;20507;-85
2024/02/24 02:04:00;;;;;;;6.38;2.85;;;;;;;4.66;89.65;96346.25;5162332;23;20177;-85
2024/02/24 02:06:03;;;;;;;6.15;3.30;;;;;;;4.65;89.72;96353.16;5160564;23;20197;-85
2024/02/24 02:08:08;;;;;;;4.93;3.25;;;;;;;4.65;89.26;96358.34;5135271;23;20850;-85
2024/02/24 02:10:12;;;;;;;8.13;3.22;;;;;;;4.66;90.26;96357.41;5137219;23;20215;-85
2024/02/24 02:12:15;;;;;;;5.78;3.10;;;;;;;4.62;90.01;96358.56;5137658;23;20205;-84
2024/02/24 02:14:18;;;;;;;5.40;3.20;;;;;;;4.60;90.27;96363.00;5137112;23;20185;-85
2024/02/24 02:16:22;;;;;;;6.88;3.50;;;;;;;4.62;89.52;96366.31;5187164;22;20925;-85
2024/02/24 02:18:24;;;;;;;6.45;3.30;;;;;;;4.62;90.02;96366.31;5136176;23;20241;-85
2024/02/24 02:20:27;;;;;;;6.10;3.40;;;;;;;4.66;90.01;96362.56;5187377;22;20502;-84
2024/02/24 02:22:32;;;;;;;9.07;3.65;;;;;;;4.68;89.93;96354.72;5161063;23;20173;-85
2024/02/24 02:24:36;;;;;;;7.30;3.55;;;;;;;4.68;89.42;96354.72;5136489;23;20210;-85
2024/02/24 02:26:39;;;;;;;5.10;3.10;;;;;;;4.69;89.47;96358.00;5187815;22;20690;-85
2024/02/24 02:28:42;;;;;;;4.43;3.00;;;;;;;4.67;90.44;96348.72;5161547;23;20225;-85
2024/02/24 02:30:45;;;;;;;6.35;3.35;;;;;;;4.70;89.31;96349.28;5188783;22;20179;-85
2024/02/24 02:32:48;;;;;;;4.75;2.70;;;;;;;4.72;90.20;96354.34;5161312;23;20221;-85
2024/02/24 02:34:51;;;;;;;6.53;3.38;;;;;;;4.74;90.29;96360.25;5162095;23;20542;-85
2024/02/24 02:36:54;;;;;;;5.07;3.63;;;;;;;4.76;89.60;96360.94;5187710;22;20207;-85
2024/02/24 02:38:59;;;;;;;5.93;3.00;;;;;;;4.75;89.46;96372.19;5161947;23;20516;-84
2024/02/24 02:41:02;;;;;;;6.25;3.10;;;;;;;4.74;89.15;96384.28;5136704;23;20184;-85
2024/02/24 02:43:06;;;;;;;6.50;3.10;;;;;;;4.73;89.03;96363.75;5162303;23;20169;-84
2024/02/24 02:45:09;;;;;;;4.13;2.83;;;;;;;4.71;89.74;96371.59;5160564;23;20178;-85
2024/02/24 02:47:12;;;;;;;9.75;3.45;;;;;;;4.69;90.42;96359.72;5163097;23;20268;-84
2024/02/24 02:49:25;;;;;;;5.90;2.88;;;;;;;4.68;89.98;96359.88;5136850;23;20210;-85
2024/02/24 02:51:28;;;;;;;5.07;3.20;;;;;;;4.66;89.09;96362.56;5136485;23;20183;-85
2024/02/24 02:53:31;;;;;;;6.25;3.40;;;;;;;4.67;89.32;96353.88;5137229;23;20176;-84
2024/02/24 02:55:37;;;;;;;5.45;2.85;;;;;;;4.68;89.65;96360.69;5135790;23;20181;-85
2024/02/24 02:57:40;;;;;;;4.85;3.30;;;;;;;4.67;90.10;96358.22;5136035;23;20178;-85
2024/02/24 02:59:43;;;;;;;5.57;3.10;;;;;;;4.66;89.17;96361.72;5162320;23;20705;-85
2024/02/24 03:01:51;;;;;;;4.75;2.92;;;;;;;4.65;89.20;96363.50;5161594;23;20591;-85
2024/02/24 03:03:54;;;;;;;8.68;3.13;;;;;;;4.63;89.44;96367.97;5162113;23;20521;-85
2024/02/24 03:05:58;;;;;;;5.40;3.08;;;;;;;4.61;89.86;96369.81;5135418;23;20285;-85
2024/02/24 03:08:01;;;;;;;5.72;2.85;;;;;;;4.61;90.16;96381.91;5134056;23;20178;-85
2024/02/24 03:10:06;;;;;;;5.53;2.90;;;;;;;4.59;89.60;96371.69;5161548;23;20181;-85
2024/02/24 03:12:11;;;;;;;5.63;3.20;;;;;;;4.59;89.74;96379.44;5136498;23;20194;-85
2024/02/24 03:14:13;;;;;;;6.18;3.17;;;;;;;4.56;89.74;96374.47;5160299;23;20176;-84
2024/02/24 03:16:18;;;;;;;5.70;3.50;;;;;;;4.53;89.06;96373.88;5159965;23;20516;-84
2024/02/24 03:18:21;;;;;;;4.93;3.13;;;;;;;4.50;88.88;96361.22;5137320;23;20579;-85
2024/02/24 03:20:24;;;;;;;4.63;3.00;;;;;;;4.45;89.17;96382.19;5137527;23;20171;-85
2024/02/24 03:22:28;;;;;;;5.20;3.50;;;;;;;4.45;89.27;96378.75;5163998;22;20242;-85
2024/02/24 03:24:30;;;;;;;5.43;3.38;;;;;;;4.44;89.92;96388.25;5163333;23;20181;-84
2024/02/24 03:26:34;;;;;;;5.93;3.38;;;;;;;4.41;89.06;96388.50;5136751;23;20179;-84
2024/02/24 03:28:40;;;;;;;5.45;2.95;;;;;;;4.40;89.50;96386.81;5164458;22;20169;-85
2024/02/24 03:30:43;;;;;;;4.47;3.08;;;;;;;4.36;89.58;96380.25;5137474;23;20627;-84
2024/02/24 03:32:46;;;;;;;5.28;3.00;;;;;;;4.38;89.02;96391.28;5187503;22;20228;-85
2024/02/24 03:34:49;;;;;;;4.70;2.95;;;;;;;4.38;90.35;96386.13;5137923;23;20185;-86
2024/02/24 03:36:53;;;;;;;6.07;3.10;;;;;;;4.35;90.08;96388.09;5188896;22;20548;-84
2024/02/24 03:38:56;;;;;;;7.47;3.30;;;;;;;4.34;90.37;96382.09;5163213;23;20181;-84
2024/02/24 03:40:59;;;;;;;5.75;3.28;;;;;;;4.30;90.42;96380.69;5183658;22;20177;-84
2024/02/24 03:43:02;;;;;;;5.25;2.88;;;;;;;4.28;89.70;96387.72;5188115;22;20664;-85
2024/02/24 03:45:08;;;;;;;6.45;3.55;;;;;;;4.28;89.63;96380.00;5162044;23;20182;-84
2024/02/24 03:47:11;;;;;;;6.57;3.10;;;;;;;4.28;89.90;96374.84;5137373;23;20607;-85
2024/02/24 03:49:14;;;;;;;6.90;3.65;;;;;;;4.28;88.76;96361.94;5136222;23;20207;-85
2024/02/24 03:51:18;;;;;;;8.10;3.85;;;;;;;4.30;89.25;96361.78;5137583;23;20188;-85
2024/02/24 03:53:21;;;;;;;7.43;3.65;;;;;;;4.27;90.40;96368.00;5163361;23;20189;-85
2024/02/24 03:55:24;;;;;;;5.65;3.53;;;;;;;4.26;89.76;96366.34;5137072;23;20277;-85
2024/02/24 03:57:28;;;;;;;4.90;3.70;;;;;;;4.25;89.08;96374.22;5137139;23;20194;-85
2024/02/24 03:59:31;;;;;;;8.32;3.17;;;;;;;4.22;90.35;96367.53;5162127;23;20177;-84
2024/02/24 04:01:36;;;;;;;6.38;3.40;;;;;;;4.20;90.50;96359.06;5162193;23;20180;-85
2024/02/24 04:03:38;;;;;;;4.35;2.90;;;;;;;4.22;90.49;96367.53;5137610;23;20174;-85
2024/02/24 04:05:41;;;;;;;7.40;3.10;;;;;;;4.20;90.06;96356.47;5190054;22;20567;-85
2024/02/24 04:07:45;;;;;;;5.13;2.80;;;;;;;4.21;90.24;96371.03;5136210;23;20649;-85
2024/02/24 04:09:48;;;;;;;4.20;2.60;;;;;;;4.23;90.62;96374.31;5162784;23;20644;-85
2024/02/24 04:11:52;;;;;;;5.22;3.15;;;;;;;4.19;90.91;96372.06;5190431;22;20238;-85
2024/02/24 04:13:56;;;;;;;4.75;2.88;;;;;;;4.17;90.75;96373.13;5137123;23;20277;-85
2024/02/24 04:15:59;;;;;;;5.22;2.65;;;;;;;4.17;90.75;96383.44;5135494;23;20177;-85
2024/02/24 04:18:05;;;;;;;4.18;2.30;;;;;;;4.16;90.62;96387.75;5136038;23;20241;-85
2024/02/24 04:20:10;;;;;;;5.15;2.78;;;;;;;4.19;91.25;96386.72;5188026;22;20240;-85
2024/02/24 04:22:14;;;;;;;3.83;2.65;;;;;;;4.19;90.67;96387.53;5138323;23;20178;-85
2024/02/24 04:24:17;;;;;;;5.47;2.88;;;;;;;4.21;89.90;96391.66;5162133;23;20261;-85
2024/02/24 04:26:20;;;;;;;4.07;2.45;;;;;;;4.23;91.05;96394.13;5136958;23;20175;-85
2024/02/24 04:28:23;;;;;;;4.95;3.03;;;;;;;4.22;90.61;96398.47;5136982;23;20184;-85
2024/02/24 04:30:27;;;;;;;4.82;2.60;;;;;;;4.23;90.50;96407.84;5162806;23;20233;-85
2024/02/24 04:32:30;;;;;;;4.32;2.70;;;;;;;4.16;89.66;96408.38;5136672;23;20598;-85
2024/02/24 04:34:37;;;;;;;5.53;2.90;;;;;;;4.15;89.89;96405.91;5137729;23;20182;-85
2024/02/24 04:36:42;;;;;;;5.03;2.40;;;;;;;4.17;90.19;96409.22;5137273;23;20466;-84
2024/02/24 04:38:45;;;;;;;5.70;2.78;;;;;;;4.17;89.99;96411.81;5162403;23;20184;-88
2024/02/24 04:40:48;;;;;;;4.38;2.85;;;;;;;4.14;89.73;96414.59;5136717;23;20615;-87
2024/02/24 04:42:52;;;;;;;4.43;2.75;;;;;;;4.12;90.00;96411.28;5161820;23;20260;-88
2024/02/24 04:44:55;;;;;;;4.25;2.55;;;;;;;4.11;89.16;96417.41;5162594;23;20169;-88
2024/02/24 04:46:58;;;;;;;6.30;2.90;;;;;;;4.11;89.62;96418.22;5135620;23;20749;-88
2024/02/24 04:49:01;;;;;;;5.47;3.15;;;;;;;4.12;89.29;96412.13;5138144;23;20170;-88
2024/02/24 04:51:06;;;;;;;4.53;3.22;;;;;;;4.12;89.57;96421.59;5163113;23;20185;-89
2024/02/24 04:53:09;;;;;;;3.88;2.58;;;;;;;4.14;89.46;96428.31;5162701;23;20198;-88
2024/02/24 04:55:12;;;;;;;5.15;2.70;;;;;;;4.08;89.42;96425.34;5137197;23;20193;-88
2024/02/24 04:57:15;;;;;;;5.03;2.85;;;;;;;4.09;89.73;96424.38;5162638;23;20637;-89
2024/02/24 04:59:18;;;;;;;5.80;2.67;;;;;;;4.11;89.16;96427.72;5137271;23;20216;-88
2024/02/24 05:01:21;;;;;;;4.18;2.70;;;;;;;4.12;89.52;96431.91;5137439;23;20188;-89
2024/02/24 05:03:25;;;;;;;7.32;2.90;;;;;;;4.07;90.43;96423.69;5162016;23;20193;-89
2024/02/24 05:05:27;;;;;;;3.58;2.35;;;;;;;4.06;89.53;96429.75;5162493;23;20610;-89
2024/02/24 05:07:32;;;;;;;4.53;2.60;;;;;;;4.02;89.83;96431.75;5137327;23;20181;-89
2024/02/24 05:09:35;;;;;;;4.40;2.60;;;;;;;4.01;89.76;96434.41;5137263;23;20174;-89
2024/02/24 05:11:39;;;;;;;4.63;2.95;;;;;;;4.00;90.15;96432.75;5163417;23;20178;-89
2024/02/24 05:13:43;;;;;;;3.95;2.95;;;;;;;3.99;90.47;96431.13;5137075;23;20333;-90
2024/02/24 05:15:46;;;;;;;4.55;2.85;;;;;;;3.99;89.92;96431.13;5137083;23;20182;-89
2024/02/24 05:17:50;;;;;;;3.65;2.70;;;;;;;4.05;89.51;96426.38;5136999;23;20547;-88
2024/02/24 05:19:53;;;;;;;8.60;3.25;;;;;;;4.07;90.53;96423.69;5189667;22;20174;-88
2024/02/24 05:21:56;;;;;;;3.60;2.45;;;;;;;4.07;90.27;96434.81;5137255;23;20179;-89
2024/02/24 05:24:01;;;;;;;8.00;3.17;;;;;;;4.07;91.27;96444.31;5162886;23;20174;-88
2024/02/24 05:26:03;;;;;;;5.70;3.35;;;;;;;4.04;91.27;96449.69;5136803;23;20272;-89
2024/02/24 05:28:07;;;;;;;4.47;2.42;;;;;;;4.06;90.55;96456.38;5161443;23;20178;-88
2024/02/24 05:30:09;;;;;;;7.10;3.40;;;;;;;4.06;89.78;96463.28;5136356;23;20178;-89
2024/02/24 05:32:14;;;;;;;4.68;3.03;;;;;;;4.03;90.65;96453.19;5188256;22;20176;-89
2024/02/24 05:34:17;;;;;;;5.40;2.63;;;;;;;4.06;89.91;96456.38;5160710;23;20291;-89
2024/02/24 05:36:20;;;;;;;5.35;3.00;;;;;;;4.08;91.37;96464.03;5161980;23;20688;-89
2024/02/24 05:38:23;;;;;;;6.10;3.40;;;;;;;4.08;91.75;96472.56;5137313;23;20642;-89
2024/02/24 05:40:28;;;;;;;3.78;2.72;;;;;;;4.10;90.75;96483.59;5136804;23;20193;-89
2024/02/24 05:42:31;;;;;;;5.93;3.25;;;;;;;4.10;91.47;96487.94;5161255;23;20193;-89
2024/02/24 05:44:35;;;;;;;3.67;2.67;;;;;;;4.11;91.99;96489.59;5187800;22;20184;-88
2024/02/24 05:46:38;;;;;;;4.65;3.00;;;;;;;4.13;90.78;96485.16;5160429;23;20695;-88
2024/02/24 05:48:42;;;;;;;5.07;2.88;;;;;;;4.16;90.55;96497.84;5138263;23;20209;-89
2024/02/24 05:50:45;;;;;;;5.45;2.63;;;;;;;4.18;90.63;96503.72;5137106;23;20209;-88
2024/02/24 05:52:48;;;;;;;6.47;3.92;;;;;;;4.18;91.94;96501.13;5136606;23;20178;-88
2024/02/24 05:54:52;;;;;;;3.95;2.65;;;;;;;4.19;90.03;96502.78;5137202;23;20202;-89
2024/02/24 05:56:57;;;;;;;5.05;3.40;;;;;;;4.20;90.43;96513.81;5161054;23;20575;-89
2024/02/24 05:59:01;;;;;;;4.07;3.20;;;;;;;4.15;90.79;96496.19;5136672;23;20248;-88
2024/02/24 06:01:04;;;;;;;6.97;3.70;;;;;;;4.15;90.49;96511.66;5137003;23;20577;-88
2024/02/24 06:03:10;;;;;;;6.32;3.72;;;;;;;4.14;90.69;96510.84;5162559;23;20229;-89
2024/02/24 06:05:13;;;;;;;6.35;2.70;;;;;;;4.23;91.24;96528.25;5136228;23;20528;-89
2024/02/24 06:07:21;;;;;;;7.30;2.40;;;;;;;4.33;91.71;96530.09;5136709;23;20205;-88
2024/02/24 06:09:24;;;;;;;4.25;2.28;;;;;;;4.47;91.97;96529.97;5136082;23;20195;-90
2024/02/24 06:11:27;;;;;;;4.45;2.55;;;;;;;4.59;91.20;96539.44;5162919;23;20236;-89
2024/02/24 06:13:32;;;;;;;4.00;3.20;;;;;;;4.62;91.30;96539.22;5161465;23;20276;-89
2024/02/24 06:15:35;;;;;;;4.75;3.40;;;;;;;4.64;90.43;96539.94;5136611;23;20580;-89
2024/02/24 06:17:38;;;;;;;5.75;3.33;;;;;;;4.63;91.30;96530.56;5135710;23;20193;-89
2024/02/24 06:19:42;;;;;;;4.93;3.63;;;;;;;4.61;90.70;96539.34;5161979;23;20200;-90
2024/02/24 06:21:44;;;;;;;5.68;3.50;;;;;;;4.61;91.72;96539.34;5138337;23;20179;-89
2024/02/24 06:23:48;;;;;;;4.65;3.08;;;;;;;4.62;92.17;96541.00;5137835;23;20182;-88
2024/02/24 06:25:51;;;;;;;5.22;3.55;;;;;;;4.63;90.83;96547.78;5136301;23;20186;-88
2024/02/24 06:27:55;;;;;;;4.38;3.03;;;;;;;4.64;92.11;96555.44;5137102;23;20177;-88
2024/02/24 06:29:59;;;;;;;4.50;2.55;;;;;;;4.69;91.22;96561.09;5191176;22;20269;-89
2024/02/24 06:32:03;;;;;;;4.53;2.63;;;;;;;4.69;90.76;96563.66;5138480;23;20269;-89
2024/02/24 06:34:06;;;;;;;6.60;3.08;;;;;;;4.70;91.68;96568.72;5195310;22;20666;-90
2024/02/24 06:36:11;;;;;;;4.72;2.80;;;;;;;4.68;91.49;96568.00;5171355;23;20224;-92
2024/02/24 06:38:14;;;;;;;4.45;3.20;;;;;;;4.70;91.14;96570.50;5148445;23;20509;-90
2024/02/24 06:40:16;;;;;;;4.15;2.92;;;;;;;4.67;90.32;96568.13;5146913;23;20189;-93
2024/02/24 06:42:35;;;;;;;4.45;3.42;;;;;;;4.65;91.94;96570.00;5141657;23;20504;-93
2024/02/24 06:44:39;;;;;;;5.38;3.22;;;;;;;4.66;91.84;96574.22;5166501;23;20661;-93
2024/02/24 06:46:43;;;;;;;4.60;3.35;;;;;;;4.67;90.69;96585.38;5140613;23;20174;-93
2024/02/24 06:48:46;;;;;;;6.47;3.40;;;;;;;4.66;92.42;96591.47;5166485;23;20269;-92
2024/02/24 06:50:50;;;;;;;5.32;3.10;;;;;;;4.67;92.55;96601.69;5165559;23;20621;-95
2024/02/24 06:52:54;;;;;;;3.25;2.10;;;;;;;4.71;91.91;96603.13;5142007;23;20206;-92
2024/02/24 06:54:57;;;;;;;5.60;2.30;;;;;;;4.89;91.94;96613.00;5142674;23;20290;-88
2024/02/24 06:57:00;;;;;;;5.25;2.10;;;;;;;5.04;92.98;96616.28;5140057;23;20639;-86
2024/02/24 06:59:06;;;;;;;3.28;2.47;;;;;;;5.16;91.42;96623.97;5165364;23;20582;-89
2024/02/24 07:01:09;;;;;;;2.95;1.98;;;;;;;5.26;92.09;96623.22;5164959;23;20169;-88
2024/02/24 07:03:14;;;;;;;4.13;2.20;;;;;;;5.36;91.19;96618.22;5141842;23;20673;-90
2024/02/24 07:05:18;;;;;;;2.90;2.10;;;;;;;5.47;90.60;96621.66;5161502;23;20256;-89
2024/02/24 07:07:22;;;;;;;3.80;1.92;;;;;;;5.55;89.63;96634.03;5138418;23;20229;-89
2024/02/24 07:09:25;;;;;;;3.35;2.20;;;;;;;5.64;89.79;96636.81;5191377;22;20219;-86
2024/02/24 07:11:28;;;;;;;3.67;1.70;;;;;;;5.72;89.32;96639.66;5164415;23;20182;-86
2024/02/24 07:13:32;;;;;;;3.53;2.28;;;;;;;5.73;89.55;96638.72;5189975;22;20181;-89
2024/02/24 07:15:35;;;;;;;5.50;1.92;;;;;;;5.81;89.32;96652.78;5138601;23;20647;-87
2024/02/24 07:17:38;;;;;;;2.90;1.63;;;;;;;5.89;89.28;96647.03;5163492;23;20176;-89
2024/02/24 07:19:43;;;;;;;2.40;1.30;;;;;;;5.95;88.81;96662.94;5164507;23;20182;-87
2024/02/24 07:21:46;;;;;;;2.55;1.38;;;;;;;5.99;88.82;96668.72;5138037;23;20225;-87
2024/02/24 07:23:51;;;;;;;5.60;1.80;;;;;;;6.06;88.74;96670.75;5139910;23;20179;-87
2024/02/24 07:25:55;;;;;;;3.45;1.40;;;;;;;6.10;88.38;96673.00;5188349;22;20625;-86
2024/02/24 07:27:58;;;;;;;2.70;1.50;;;;;;;6.16;88.16;96677.72;5162883;23;20703;-92
2024/02/24 07:30:02;;;;;;;4.20;1.80;;;;;;;6.20;88.23;96675.72;5138765;23;20178;-89
2024/02/24 07:32:06;;;;;;;2.97;1.42;;;;;;;6.20;88.01;96681.72;5138551;23;20178;-91
2024/02/24 07:34:10;;;;;;;4.22;1.50;;;;;;;6.24;88.10;96677.13;5165510;23;20179;-90
2024/02/24 07:36:16;;;;;;;2.78;1.45;;;;;;;6.29;88.98;96685.41;5138889;23;20200;-91
2024/02/24 07:38:19;;;;;;;2.30;1.40;;;;;;;6.33;88.44;96687.66;5163620;23;20198;-87
2024/02/24 07:40:23;;;;;;;2.00;1.15;;;;;;;6.42;88.48;96701.66;5139265;23;20193;-90
2024/02/24 07:42:26;;;;;;;2.00;1.20;;;;;;;6.49;88.54;96702.88;5164661;23;20190;-92
2024/02/24 07:44:29;;;;;;;2.40;1.30;;;;;;;6.55;88.71;96703.22;5137769;23;20178;-90
2024/02/24 07:46:32;;;;;;;2.53;1.25;;;;;;;6.61;88.44;96716.56;5190112;22;20591;-89
2024/02/24 07:48:37;;;;;;;2.38;1.15;;;;;;;6.68;88.38;96709.16;5190659;22;20172;-92
2024/02/24 07:50:40;;;;;;;3.05;1.40;;;;;;;6.72;87.55;96723.50;5164379;23;20179;-90
2024/02/24 07:52:45;;;;;;;3.20;1.40;;;;;;;6.75;88.20;96718.94;5139328;23;20321;-90
2024/02/24 07:54:49;;;;;;;2.13;1.23;;;;;;;6.81;87.54;96726.25;5139949;23;20181;-91
2024/02/24 07:56:52;;;;;;;4.35;1.90;;;;;;;6.88;87.78;96739.56;5161324;23;20218;-90
2024/02/24 07:58:55;;;;;;;2.67;1.10;;;;;;;6.90;87.63;96738.50;5163519;23;20298;-90
2024/02/24 08:00:59;;;;;;;1.75;1.05;;;;;;;6.92;87.62;96743.56;5139462;23;20189;-88
2024/02/24 08:03:02;;;;;;;1.50;0.90;;;;;;;6.94;87.41;96742.50;5162455;23;20177;-89
2024/02/24 08:05:05;;;;;;;2.28;0.90;;;;;;;7.01;87.51;96742.88;5165267;23;20171;-89
2024/02/24 08:07:09;;;;;;;2.10;0.70;;;;;;;7.05;86.63;96745.09;5138911;23;20194;-90
2024/02/24 08:09:13;;;;;;;1.77;0.85;;;;;;;7.07;87.26;96746.66;5164737;23;20547;-91
2024/02/24 08:11:16;;;;;;;1.92;0.80;;;;;;;7.03;87.85;96750.41;5138470;23;20622;-91
2024/02/24 08:13:20;;;;;;;1.63;0.80;;;;;;;6.95;85.78;96753.72;5163431;23;20203;-91
2024/02/24 08:15:24;;;;;;;1.90;0.82;;;;;;;6.92;86.30;96757.34;5164710;23;20217;-92
2024/02/24 08:17:27;;;;;;;3.25;1.55;;;;;;;6.81;86.79;96756.50;5137692;23;20177;-90
2024/02/24 08:19:33;;;;;;;4.70;2.25;;;;;;;6.80;87.39;96770.41;5139601;23;20174;-91
2024/02/24 08:21:37;;;;;;;2.50;1.30;;;;;;;6.85;87.95;96769.09;5136515;23;20181;-91
2024/02/24 08:23:42;;;;;;;1.60;0.80;;;;;;;6.90;87.70;96776.53;5163188;23;20198;-91
2024/02/24 08:25:46;;;;;;;3.13;1.40;;;;;;;6.85;86.95;96776.88;5162937;23;20230;-89
2024/02/24 08:27:49;;;;;;;3.20;1.65;;;;;;;6.83;87.62;96776.19;5161907;23;20180;-88
2024/02/24 08:29:54;;;;;;;1.85;1.00;;;;;;;6.89;87.00;96786.09;5163577;23;20173;-88
2024/02/24 08:31:57;;;;;;;1.60;0.70;;;;;;;6.93;86.95;96786.66;5137558;23;20184;-87
2024/02/24 08:34:00;;;;;;;1.60;0.80;;;;;;;6.88;86.06;96793.97;5188381;22;20241;-88
2024/02/24 08:36:05;;;;;;;1.70;0.73;;;;;;;6.82;86.10;96791.84;5161559;23;20287;-88
2024/02/24 08:38:07;;;;;;;2.10;0.70;;;;;;;6.87;86.13;96795.75;5136428;23;20172;-87
2024/02/24 08:40:12;;;;;;;1.38;0.65;;;;;;;6.87;85.67;96803.53;5163405;23;20583;-90
2024/02/24 08:42:16;;;;;;;1.60;0.70;;;;;;;6.89;87.72;96801.63;5189387;22;20182;-88
2024/02/24 08:44:20;;;;;;;1.75;0.80;;;;;;;6.93;86.89;96797.88;5137676;23;20561;-90
2024/02/24 08:46:23;;;;;;;1.90;0.70;;;;;;;6.96;85.90;96797.66;5137302;23;20177;-89
2024/02/24 08:48:26;;;;;;;1.67;0.80;;;;;;;6.91;85.09;96798.91;5163425;23;20192;-88
2024/02/24 08:50:30;;;;;;;2.20;1.27;;;;;;;6.92;85.42;96804.00;5138887;23;20395;-88
2024/02/24 08:52:34;;;;;;;2.15;0.70;;;;;;;6.91;84.78;96804.91;5190783;22;20690;-89
2024/02/24 08:54:48;;;;;;;1.33;0.70;;;;;;;6.95;85.22;96802.94;5163002;23;20205;-86
2024/02/24 08:56:52;;;;;;;2.20;0.80;;;;;;;7.01;84.82;96811.09;5137656;23;20789;-90
2024/02/24 08:58:58;;;;;;;1.40;0.60;;;;;;;7.12;84.58;96798.94;5163025;23;20260;-86
2024/02/24 09:01:02;;;;;;;1.73;0.65;;;;;;;7.45;83.79;96814.53;5163083;23;20173;-87
2024/02/24 09:03:05;;;;;;;1.30;0.60;;;;;;;7.92;84.24;96822.06;5164085;23;20170;-86
2024/02/24 09:05:08;;;;;;;1.40;0.50;;;;;;;8.30;83.61;96834.56;5138522;23;20217;-88
2024/02/24 09:07:11;;;;;;;1.60;0.70;;;;;;;8.55;80.73;96829.03;5137021;23;20200;-88
2024/02/24 09:09:14;;;;;;;1.50;0.60;;;;;;;8.83;80.35;96838.88;5162583;23;20211;-88
2024/02/24 09:11:18;;;;;;;1.92;0.80;;;;;;;9.05;81.44;96848.19;5135887;23;20181;-88
2024/02/24 09:13:21;;;;;;;1.10;0.40;;;;;;;9.15;78.14;96846.47;5160619;23;20181;-86
2024/02/24 09:15:26;;;;;;;1.40;0.60;;;;;;;9.17;78.52;96834.19;5161972;23;20177;-86
2024/02/24 09:17:34;;;;;;;1.80;0.60;;;;;;;9.34;78.36;96831.00;5159414;23;20181;-86
2024/02/24 09:19:37;;;;;;;2.20;1.13;;;;;;;9.36;76.96;96834.28;5137527;23;20178;-86
2024/02/24 09:21:44;;;;;;;1.70;0.80;;;;;;;9.48;76.54;96839.28;5162978;23;20176;-86
2024/02/24 09:23:47;;;;;;;1.65;0.60;;;;;;;9.66;76.30;96855.16;5161423;23;20264;-86
2024/02/24 09:25:50;;;;;;;1.15;0.43;;;;;;;9.81;76.43;96846.84;5161387;23;20178;-87
2024/02/24 09:27:54;;;;;;;1.40;0.60;;;;;;;9.87;74.76;96847.16;5188664;22;20210;-86
2024/02/24 09:29:58;;;;;;;1.10;0.40;;;;;;;10.00;74.22;96841.78;5161860;23;20184;-85
2024/02/24 09:32:02;;;;;;;2.75;0.60;;;;;;;10.26;76.00;96848.97;5137433;23;20850;-85
2024/02/24 09:34:05;;;;;;;1.52;0.70;;;;;;;10.39;75.25;96860.81;5189152;22;20172;-86
2024/02/24 09:36:13;;;;;;;1.33;0.50;;;;;;;10.30;73.04;96860.78;5162572;23;20228;-89
2024/02/24 09:38:16;;;;;;;1.40;0.50;;;;;;;10.37;73.69;96857.53;5137688;23;20178;-86
2024/02/24 09:40:19;;;;;;;1.47;0.70;;;;;;;10.41;73.62;96856.28;5137961;23;20583;-86
2024/02/24 09:42:26;;;;;;;1.75;0.63;;;;;;;10.55;73.50;96853.28;5136133;23;20660;-91
2024/02/24 09:44:30;;;;;;;1.60;0.77;;;;;;;10.63;73.01;96856.06;5160550;23;20173;-85
2024/02/24 09:46:34;;;;;;;2.60;1.43;;;;;;;10.72;72.26;96857.00;5159844;23;20584;-87
2024/02/24 09:48:42;;;;;;;1.70;0.50;;;;;;;10.65;71.99;96866.34;5161061;23;20560;-90